createdAt,value
2018-03-15T00:01:35.730Z,5.17
2018-03-15T00:06:37.103Z,5.23
2018-03-15T00:11:38.519Z,5.16
2018-03-15T00:16:39.912Z,5.26
2018-03-15T00:21:41.292Z,5.07
2018-03-15T00:26:42.655Z,5.03
2018-03-15T00:31:43.987Z,5.16
2018-03-15T00:36:45.350Z,5.07
2018-03-15T00:41:46.702Z,5.06
2018-03-15T00:46:48.036Z,5.12
2018-03-15T00:51:49.457Z,5.20
2018-03-15T00:56:50.842Z,5.12
2018-03-15T01:01:52.262Z,5.13
2018-03-15T01:06:53.628Z,5.08
2018-03-15T01:11:55.093Z,4.80
2018-03-15T01:16:56.485Z,4.70
2018-03-15T01:21:57.917Z,4.98
2018-03-15T01:26:59.279Z,4.88
2018-03-15T01:32:00.662Z,4.99
2018-03-15T01:37:02.017Z,4.99
2018-03-15T01:42:03.427Z,4.74
2018-03-15T01:47:04.829Z,4.75
2018-03-15T01:52:06.202Z,4.80
2018-03-15T01:57:07.595Z,4.81
2018-03-15T02:02:08.953Z,4.79
2018-03-15T02:07:10.325Z,4.75
2018-03-15T02:12:11.664Z,4.80
2018-03-15T02:17:13.086Z,4.65
2018-03-15T02:22:14.444Z,4.77
2018-03-15T02:27:15.882Z,4.68
2018-03-15T02:32:18.525Z,4.58
2018-03-15T02:37:19.916Z,4.57
2018-03-15T02:42:21.250Z,4.41
2018-03-15T02:47:22.620Z,4.44
2018-03-15T02:52:24.042Z,4.52
2018-03-15T02:57:25.390Z,4.44
2018-03-15T03:02:26.732Z,4.48
2018-03-15T03:07:28.117Z,4.43
2018-03-15T03:12:29.487Z,4.42
2018-03-15T03:17:30.874Z,4.33
2018-03-15T03:22:32.243Z,4.41
2018-03-15T03:27:33.639Z,4.52
2018-03-15T03:32:35.086Z,4.64
2018-03-15T03:37:36.495Z,4.69
2018-03-15T03:42:37.926Z,4.59
2018-03-15T03:47:39.368Z,4.64
2018-03-15T03:52:40.718Z,4.56
2018-03-15T03:57:42.075Z,4.49
2018-03-15T04:02:44.178Z,4.43
2018-03-15T04:07:46.283Z,4.58
2018-03-15T04:12:47.644Z,4.47
2018-03-15T04:17:49.009Z,4.36
2018-03-15T04:22:50.354Z,4.33
2018-03-15T04:27:52.481Z,4.38
2018-03-15T04:32:54.148Z,4.33
2018-03-15T04:37:55.492Z,4.39
2018-03-15T04:42:56.843Z,4.36
2018-03-15T04:47:58.916Z,4.21
2018-03-15T04:53:00.268Z,4.34
2018-03-15T04:58:01.620Z,4.35
2018-03-15T05:03:03.715Z,4.34
2018-03-15T05:08:05.176Z,4.27
2018-03-15T05:13:07.482Z,4.25
2018-03-15T05:18:08.948Z,4.23
2018-03-15T05:23:10.308Z,4.23
2018-03-15T05:28:11.660Z,4.31
2018-03-15T05:33:13.053Z,4.29
2018-03-15T05:38:14.382Z,4.30
2018-03-15T05:43:15.717Z,4.37
2018-03-15T05:48:17.099Z,4.25
2018-03-15T05:53:18.426Z,4.18
2018-03-15T05:58:19.763Z,4.25
2018-03-15T06:03:21.096Z,4.26
2018-03-15T06:08:22.428Z,4.34
2018-03-15T06:13:23.804Z,4.36
2018-03-15T06:18:25.160Z,4.45
2018-03-15T06:23:26.492Z,4.54
2018-03-15T06:28:28.621Z,4.65
2018-03-15T06:33:29.972Z,4.68
2018-03-15T06:38:31.374Z,4.77
2018-03-15T06:43:32.723Z,4.86
2018-03-15T06:48:34.104Z,4.76
2018-03-15T06:53:35.449Z,4.91
2018-03-15T06:58:37.202Z,5.01
2018-03-15T07:03:38.552Z,4.93
2018-03-15T07:08:39.938Z,4.98
2018-03-15T07:13:42.025Z,5.09
2018-03-15T07:18:43.391Z,5.36
2018-03-15T07:23:44.752Z,5.46
2018-03-15T07:28:46.090Z,5.47
2018-03-15T07:33:47.426Z,5.54
2018-03-15T07:38:48.761Z,5.58
2018-03-15T07:43:50.088Z,5.69
2018-03-15T07:48:51.424Z,5.78
2018-03-15T07:53:52.760Z,5.88
2018-03-15T07:58:54.833Z,5.88
2018-03-15T08:03:56.207Z,6.02
2018-03-15T08:08:57.585Z,6.12
2018-03-15T08:13:58.948Z,6.16
2018-03-15T08:19:00.280Z,6.48
2018-03-15T08:24:01.627Z,6.83
2018-03-15T08:29:02.999Z,7.04
2018-03-15T08:34:05.096Z,7.11
2018-03-15T08:39:07.324Z,7.26
2018-03-15T08:44:09.409Z,7.38
2018-03-15T08:49:10.803Z,7.79
2018-03-15T08:54:12.160Z,7.47
2018-03-15T08:59:13.558Z,7.80
2018-03-15T09:04:14.949Z,8.14
2018-03-15T09:09:16.268Z,7.99
2018-03-15T09:14:18.371Z,8.05
2018-03-15T09:19:19.711Z,8.17
2018-03-15T09:24:21.056Z,8.38
2018-03-15T09:29:23.140Z,8.56
2018-03-15T09:34:24.545Z,8.67
2018-03-15T09:39:25.845Z,8.64
2018-03-15T09:44:27.932Z,8.88
2018-03-15T09:49:30.019Z,9.07
2018-03-15T09:54:31.354Z,8.77
2018-03-15T09:59:32.732Z,8.99
2018-03-15T10:04:34.068Z,9.20
2018-03-15T10:09:35.456Z,9.44
2018-03-15T10:14:36.866Z,9.43
2018-03-15T10:19:38.220Z,9.23
2018-03-15T10:24:39.621Z,9.06
2018-03-15T10:29:40.981Z,9.24
2018-03-15T10:34:42.451Z,9.59
2018-03-15T10:39:43.794Z,9.43
2018-03-15T10:44:45.160Z,9.25
2018-03-15T10:49:46.572Z,9.36
2018-03-15T10:54:47.883Z,9.61
2018-03-15T10:59:49.304Z,9.63
2018-03-15T11:04:56.623Z,9.93
2018-03-15T11:09:57.964Z,9.84
2018-03-15T11:14:59.283Z,10.00
2018-03-15T11:20:00.597Z,10.16
2018-03-15T11:25:01.964Z,10.33
2018-03-15T11:30:03.347Z,10.37
2018-03-15T11:35:04.671Z,10.49
2018-03-15T11:40:06.763Z,10.65
2018-03-15T11:45:08.079Z,10.60
2018-03-15T11:50:10.139Z,10.55
2018-03-15T11:55:11.472Z,10.69
2018-03-15T12:00:13.555Z,10.71
2018-03-15T12:05:14.880Z,10.98
2018-03-15T12:10:16.935Z,10.73
2018-03-15T12:15:18.256Z,11.04
2018-03-15T12:20:20.381Z,10.86
2018-03-15T12:25:22.427Z,10.81
2018-03-15T12:30:23.757Z,10.77
2018-03-15T12:35:25.072Z,11.00
2018-03-15T12:40:27.140Z,11.11
2018-03-15T12:45:28.462Z,11.09
2018-03-15T12:50:30.539Z,11.08
2018-03-15T12:55:31.808Z,10.91
2018-03-15T13:00:33.108Z,11.00
2018-03-15T13:05:34.400Z,11.12
2018-03-15T13:10:35.708Z,11.08
2018-03-15T13:15:37.004Z,11.23
2018-03-15T13:20:39.061Z,11.20
2018-03-15T13:25:40.358Z,11.18
2018-03-15T13:30:41.678Z,11.31
2018-03-15T13:35:42.995Z,11.26
2018-03-15T13:40:44.302Z,11.34
2018-03-15T13:45:45.608Z,11.30
2018-03-15T13:50:46.919Z,11.33
2018-03-15T13:55:48.208Z,11.43
2018-03-15T14:00:49.516Z,11.50
2018-03-15T14:05:51.591Z,11.45
2018-03-15T14:10:52.890Z,11.45
2018-03-15T14:15:54.191Z,11.71
2018-03-15T14:20:55.488Z,11.87
2018-03-15T14:25:56.792Z,11.77
2018-03-15T14:30:58.823Z,11.80
2018-03-15T14:36:00.140Z,11.76
2018-03-15T14:41:01.467Z,11.90
2018-03-15T14:46:03.524Z,11.66
2018-03-15T14:51:04.860Z,11.55
2018-03-15T14:56:06.892Z,11.64
2018-03-15T15:01:08.192Z,11.42
2018-03-15T15:06:09.543Z,11.43
2018-03-15T15:11:11.619Z,11.49
2018-03-15T15:16:13.025Z,11.25
2018-03-15T15:21:14.286Z,11.12
2018-03-15T15:26:15.620Z,11.00
2018-03-15T15:31:17.686Z,10.87
2018-03-15T15:36:19.001Z,10.95
2018-03-15T15:41:20.319Z,10.84
2018-03-15T15:46:22.356Z,10.76
2018-03-15T15:51:23.675Z,10.68
2018-03-15T15:56:25.084Z,10.63
2018-03-15T16:01:27.480Z,10.70
2018-03-15T16:06:28.790Z,10.56
2018-03-15T16:11:30.135Z,10.57
2018-03-15T16:16:31.472Z,10.50
2018-03-15T16:21:32.933Z,10.42
2018-03-15T16:26:34.236Z,10.37
2018-03-15T16:31:35.532Z,10.30
2018-03-15T16:36:36.907Z,10.30
2018-03-15T16:41:38.224Z,10.07
2018-03-15T16:46:39.591Z,9.97
2018-03-15T16:51:40.952Z,9.81
2018-03-15T16:56:42.327Z,9.91
2018-03-15T17:01:44.372Z,9.84
2018-03-15T17:06:45.668Z,9.79
2018-03-15T17:11:46.973Z,9.73
2018-03-15T17:16:48.284Z,9.68
2018-03-15T17:21:50.322Z,9.64
2018-03-15T17:26:51.628Z,9.51
2018-03-15T17:31:52.946Z,9.59
2018-03-15T17:36:54.250Z,9.44
2018-03-15T17:41:55.540Z,9.26
2018-03-15T17:46:56.827Z,9.08
2018-03-15T17:51:58.931Z,9.01
2018-03-15T17:57:00.228Z,9.04
2018-03-15T18:02:02.303Z,8.91
2018-03-15T18:07:03.628Z,8.83
2018-03-15T18:12:05.663Z,8.68
2018-03-15T18:17:07.840Z,8.70
2018-03-15T18:22:09.955Z,8.55
2018-03-15T18:27:12.009Z,8.42
2018-03-15T18:32:13.373Z,8.26
2018-03-15T18:37:14.724Z,8.32
2018-03-15T18:42:16.024Z,8.31
2018-03-15T18:47:18.158Z,8.17
2018-03-15T18:52:19.473Z,8.33
2018-03-15T18:57:21.814Z,8.12
2018-03-15T19:02:23.195Z,8.10
2018-03-15T19:07:24.516Z,7.96
2018-03-15T19:12:27.561Z,8.00
2018-03-15T19:17:28.904Z,7.99
2018-03-15T19:22:30.238Z,7.86
2018-03-15T19:27:31.540Z,7.79
2018-03-15T19:32:32.831Z,7.86
2018-03-15T19:37:34.144Z,7.70
2018-03-15T19:42:35.511Z,7.77
2018-03-15T19:47:36.849Z,7.85
2018-03-15T19:52:38.165Z,7.64
2018-03-15T19:57:40.220Z,7.61
2018-03-15T20:02:41.540Z,7.50
2018-03-15T20:07:42.967Z,7.64
2018-03-15T20:12:44.337Z,7.63
2018-03-15T20:17:45.593Z,7.69
2018-03-15T20:28:36.367Z,7.61
2018-03-15T20:33:43.835Z,7.69
2018-03-15T20:38:45.324Z,7.53
2018-03-15T20:43:46.630Z,7.50
2018-03-15T20:48:54.001Z,7.51
2018-03-15T20:53:55.543Z,7.34
2018-03-15T20:58:56.847Z,7.31
2018-03-15T21:03:58.341Z,7.39
2018-03-15T21:09:01.067Z,7.55
2018-03-15T21:14:03.416Z,7.43
2018-03-15T21:19:04.961Z,7.38
2018-03-15T21:24:07.456Z,7.29
2018-03-15T21:29:09.567Z,7.32
2018-03-15T21:34:11.911Z,7.39
2018-03-15T21:39:13.671Z,7.27
2018-03-15T21:44:15.304Z,7.42
2018-03-15T21:49:17.183Z,7.36
2018-03-15T21:54:18.516Z,7.40
2018-03-15T21:59:20.827Z,7.24
2018-03-15T22:04:22.933Z,7.32
2018-03-15T22:09:24.576Z,7.22
2018-03-15T22:14:26.043Z,7.18
2018-03-15T22:19:27.465Z,7.21
2018-03-15T22:24:29.243Z,7.25
2018-03-15T22:29:31.384Z,7.05
2018-03-15T22:34:32.753Z,7.01
2018-03-15T22:39:34.740Z,7.05
2018-03-15T22:44:37.016Z,7.05
2018-03-15T22:49:38.511Z,7.11
2018-03-15T22:54:40.504Z,7.14
2018-03-15T22:59:42.721Z,7.06
2018-03-15T23:04:44.398Z,7.11
2018-03-15T23:09:45.917Z,7.04
2018-03-15T23:14:48.008Z,6.90
2018-03-15T23:19:49.351Z,7.02
2018-03-15T23:24:50.719Z,7.27
2018-03-15T23:29:52.748Z,7.18
2018-03-15T23:34:54.068Z,7.32
2018-03-15T23:39:55.369Z,7.30
2018-03-15T23:44:56.668Z,7.39
2018-03-15T23:49:57.964Z,7.32
2018-03-15T23:54:59.308Z,7.18
